C35

Reedsburg Municipal Airport

Reedsburg, Wisconsin, USA
METAR KC35 200155Z AUTO 28004KT 10SM CLR 10/02 A2981 RMK AO2 T01030018
Observed Flight Rules
Oct-20 @ 01:55 UTC (16 minutes ago) Visual Flight Rules
Wind Visibility Clouds
280° at 4 knots 10 miles
  • Clear skies
Temperatures Readings
Current 10°C / 50°F
Dewpoint 2°C / 36°F
Humidity 58%
Altimeter 29.81" Hg
Pressure 1009 hPa
Elevation 276
METAR KC35 200155Z AUTO 28004KT 10SM CLR 10/02 A2981 RMK AO2 T01030018
Observed Flight Rules
Oct-20 @ 01:55 UTC
(16 minutes ago)
VFR
Wind Visibility
280° at 4 knots 10 miles
Clouds
  • Clear skies
Temperature Dewpoint
10°C / 50°F 2°C / 36°F
Humidity Altimeter Pressure
58% 29.81" Hg 1009 hPa